Time;durP1;ratioP1;P1;durP2;ratioP2;P2;SDS_P1;SDS_P2;PMS_P1;PMS_P2;Temp;Humidity;BMP_temperature;BMP_pressure;BME280_temperature;BME280_humidity;BME280_pressure;Samples;Min_cycle;Max_cycle;Signal;HPM_P1;HPM_P2
2023/02/12 00:02:17;;;;;;;56.53;27.60;;;2.60;99.90;;;;;;5049255;28;20025;-76
2023/02/12 00:04:43;;;;;;;59.50;27.25;;;2.60;99.90;;;;;;5051456;28;20032;-78
2023/02/12 00:07:09;;;;;;;63.38;28.08;;;2.50;99.90;;;;;;5052809;28;20424;-77
2023/02/12 00:09:36;;;;;;;69.22;28.83;;;2.60;99.90;;;;;;5035288;28;20060;-76
2023/02/12 00:12:02;;;;;;;74.63;30.85;;;2.60;99.90;;;;;;5053293;28;20040;-80
2023/02/12 00:14:28;;;;;;;65.85;28.38;;;2.60;99.90;;;;;;5047345;28;20021;-78
2023/02/12 00:16:54;;;;;;;68.82;29.48;;;2.60;99.90;;;;;;5049871;28;20144;-77
2023/02/12 00:19:19;;;;;;;76.72;32.00;;;2.50;99.90;;;;;;5031983;28;20087;-78
2023/02/12 00:21:45;;;;;;;65.47;29.90;;;2.50;99.90;;;;;;5041565;28;20059;-77
2023/02/12 00:24:11;;;;;;;61.22;28.45;;;2.50;99.90;;;;;;5052561;28;20029;-77
2023/02/12 00:26:37;;;;;;;70.22;30.70;;;2.50;99.90;;;;;;5055541;28;20466;-77
2023/02/12 00:29:03;;;;;;;70.57;30.50;;;2.50;99.90;;;;;;5056140;28;20603;-77
2023/02/12 00:31:30;;;;;;;72.28;30.58;;;2.50;99.90;;;;;;5047374;28;20037;-76
2023/02/12 00:33:58;;;;;;;82.45;32.40;;;2.50;99.90;;;;;;5055164;28;20070;-77
2023/02/12 00:36:26;;;;;;;74.28;31.90;;;2.50;99.90;;;;;;5036324;28;20132;-79
2023/02/12 00:38:54;;;;;;;77.25;33.08;;;2.50;99.90;;;;;;5054984;28;20706;-78
2023/02/12 00:41:23;;;;;;;74.28;31.63;;;2.40;99.90;;;;;;5037847;28;20034;-77
2023/02/12 00:43:49;;;;;;;73.72;29.40;;;2.40;99.90;;;;;;5059024;28;20035;-76
2023/02/12 00:46:15;;;;;;;71.10;31.20;;;2.40;99.90;;;;;;5044701;28;20596;-79
2023/02/12 00:48:42;;;;;;;62.78;29.27;;;2.40;99.90;;;;;;5055714;28;20025;-77
2023/02/12 00:51:09;;;;;;;70.80;31.33;;;2.40;99.90;;;;;;5056764;28;20032;-78
2023/02/12 00:53:35;;;;;;;77.47;31.63;;;2.40;99.90;;;;;;5054120;28;20026;-77
2023/02/12 00:56:01;;;;;;;84.00;34.72;;;2.40;99.90;;;;;;5036889;28;20055;-79
2023/02/12 00:58:27;;;;;;;76.10;32.17;;;2.40;99.90;;;;;;5049699;28;20026;-79
2023/02/12 01:00:54;;;;;;;80.32;34.10;;;2.40;99.90;;;;;;5043056;28;20563;-78
2023/02/12 01:03:22;;;;;;;80.78;34.47;;;2.50;99.90;;;;;;5034327;28;20025;-79
2023/02/12 01:05:48;;;;;;;74.30;33.53;;;2.50;99.90;;;;;;5050359;28;20087;-80
2023/02/12 01:08:15;;;;;;;68.78;31.50;;;2.40;99.90;;;;;;5053043;28;20029;-80
2023/02/12 01:10:42;;;;;;;74.53;32.28;;;2.40;99.90;;;;;;5035615;28;20056;-79
2023/02/12 01:13:13;;;;;;;69.20;31.60;;;2.40;99.90;;;;;;5047019;28;20029;-79
2023/02/12 01:15:40;;;;;;;72.35;31.13;;;2.40;99.90;;;;;;5051306;28;20056;-78
2023/02/12 01:18:06;;;;;;;69.65;30.10;;;2.40;99.90;;;;;;5053784;28;20061;-79
2023/02/12 01:20:32;;;;;;;73.57;32.78;;;2.30;99.90;;;;;;5053339;28;20516;-78
2023/02/12 01:23:00;;;;;;;67.53;31.02;;;2.40;99.90;;;;;;5054016;28;20017;-78
2023/02/12 01:25:26;;;;;;;65.07;31.23;;;2.40;99.90;;;;;;5053660;28;20029;-78
2023/02/12 01:27:53;;;;;;;58.35;28.23;;;2.40;99.90;;;;;;5054901;28;20021;-77
2023/02/12 01:30:21;;;;;;;69.40;30.15;;;2.40;99.90;;;;;;5053344;28;20127;-78
2023/02/12 01:32:49;;;;;;;61.58;28.50;;;2.40;99.90;;;;;;5059474;28;20032;-79
2023/02/12 01:35:15;;;;;;;57.85;27.15;;;2.40;99.90;;;;;;5056425;28;20033;-79
2023/02/12 01:37:41;;;;;;;54.72;27.13;;;2.50;99.90;;;;;;5039587;28;20033;-79
2023/02/12 01:40:18;;;;;;;58.90;27.58;;;2.50;99.90;;;;;;5054538;28;20375;-79
2023/02/12 01:42:44;;;;;;;54.72;25.55;;;2.50;99.90;;;;;;5063115;28;20016;-78
2023/02/12 01:45:13;;;;;;;55.67;27.17;;;2.60;99.90;;;;;;5055050;28;20049;-77
2023/02/12 01:47:44;;;;;;;54.88;25.67;;;2.60;99.90;;;;;;5055717;28;20341;-78
2023/02/12 01:50:15;;;;;;;51.88;25.67;;;2.60;99.90;;;;;;5051113;28;20103;-79
2023/02/12 01:52:49;;;;;;;58.92;26.35;;;2.60;99.90;;;;;;5066959;28;20025;-79
2023/02/12 01:55:15;;;;;;;52.50;25.30;;;2.60;99.90;;;;;;5054691;28;20033;-78
2023/02/12 01:57:44;;;;;;;65.85;27.25;;;2.60;99.90;;;;;;5055328;28;20039;-77
2023/02/12 02:00:14;;;;;;;54.42;26.67;;;2.70;99.90;;;;;;5048584;28;20025;-78
2023/02/12 02:02:42;;;;;;;57.60;27.55;;;2.70;99.90;;;;;;5064748;28;20033;-78
2023/02/12 02:05:08;;;;;;;65.13;27.02;;;2.70;99.90;;;;;;5055432;28;20517;-78
2023/02/12 02:07:33;;;;;;;58.63;27.92;;;2.70;99.90;;;;;;5056808;28;20082;-78
2023/02/12 02:10:01;;;;;;;51.17;25.23;;;2.70;99.90;;;;;;5055529;28;20832;-78
2023/02/12 02:15:16;;;;;;;55.35;25.85;;;2.70;99.90;;;;;;5058077;28;20022;-79
2023/02/12 02:18:03;;;;;;;53.08;25.52;;;2.60;99.90;;;;;;5040600;28;20040;-79
2023/02/12 02:20:38;;;;;;;66.53;29.98;;;2.60;99.90;;;;;;5056655;28;20171;-78
2023/02/12 02:23:12;;;;;;;64.40;28.17;;;2.70;99.90;;;;;;5064184;28;20025;-78
2023/02/12 02:26:09;;;;;;;72.60;30.48;;;2.70;99.90;;;;;;5057759;28;20043;-79
2023/02/12 02:28:38;;;;;;;64.72;27.98;;;2.70;99.90;;;;;;5056544;28;20021;-79
2023/02/12 02:31:33;;;;;;;73.70;29.48;;;2.60;99.90;;;;;;5056417;28;20489;-79
2023/02/12 02:34:08;;;;;;;63.28;28.10;;;2.60;99.90;;;;;;5050895;28;20124;-78
2023/02/12 02:36:37;;;;;;;;;;;2.60;99.90;;;;;;5053654;28;20032;-78
2023/02/12 02:39:16;;;;;;;70.43;28.85;;;2.60;99.90;;;;;;5051717;28;20006;-78
2023/02/12 02:42:23;;;;;;;79.47;30.50;;;2.60;99.90;;;;;;5046744;28;20021;-78
2023/02/12 02:45:09;;;;;;;82.57;31.38;;;2.60;99.90;;;;;;5006329;28;20040;-79
2023/02/12 02:47:43;;;;;;;98.45;31.88;;;2.70;99.90;;;;;;5009428;28;20041;-78
2023/02/12 02:50:13;;;;;;;81.53;30.07;;;2.70;99.90;;;;;;5029301;28;20060;-78
2023/02/12 02:53:03;;;;;;;109.60;30.52;;;2.70;99.90;;;;;;5049507;28;20083;-78
2023/02/12 02:55:37;;;;;;;73.30;28.77;;;2.60;99.90;;;;;;5057400;28;20044;-78
2023/02/12 02:58:26;;;;;;;63.47;27.88;;;2.50;99.90;;;;;;5059079;28;20033;-78
2023/02/12 03:01:13;;;;;;;189.02;34.47;;;2.50;99.90;;;;;;5059101;28;20105;-78
2023/02/12 03:04:19;;;;;;;56.50;24.85;;;2.40;99.90;;;;;;5058601;28;20025;-79
2023/02/12 03:06:47;;;;;;;69.10;27.47;;;2.40;99.90;;;;;;5030289;28;20568;-78
2023/02/12 03:09:31;;;;;;;155.15;31.75;;;2.40;99.90;;;;;;5046791;28;20049;-78
2023/02/12 03:12:13;;;;;;;68.00;26.98;;;2.50;99.90;;;;;;5052824;28;20033;-79
2023/02/12 03:14:44;;;;;;;68.50;27.45;;;2.40;99.90;;;;;;5048760;28;20045;-78
2023/02/12 03:17:19;;;;;;;73.63;27.88;;;2.40;99.90;;;;;;5054978;28;20056;-78
2023/02/12 03:19:53;;;;;;;73.40;28.88;;;2.40;99.90;;;;;;5059275;28;20029;-77
2023/02/12 03:22:24;;;;;;;66.63;27.67;;;2.40;99.90;;;;;;5050706;28;20025;-78
2023/02/12 03:24:59;;;;;;;120.45;30.38;;;2.40;99.90;;;;;;5053639;28;20071;-78
2023/02/12 03:27:30;;;;;;;;;;;2.40;99.90;;;;;;5056341;28;20389;-78
2023/02/12 03:29:57;;;;;;;72.68;29.20;;;2.40;99.90;;;;;;5052446;28;20327;-79
2023/02/12 03:32:43;;;;;;;67.78;26.75;;;2.40;99.90;;;;;;5054821;28;20037;-79
2023/02/12 03:35:21;;;;;;;72.80;27.40;;;2.40;99.90;;;;;;5058676;28;20029;-78
2023/02/12 03:38:06;;;;;;;78.40;30.63;;;2.30;99.90;;;;;;5057638;28;20037;-78
2023/02/12 03:40:35;;;;;;;76.65;30.20;;;2.50;99.90;;;;;;5052039;28;20091;-79
2023/02/12 03:43:22;;;;;;;68.43;26.83;;;2.60;99.90;;;;;;5062570;28;20017;-78
2023/02/12 03:45:58;;;;;;;74.90;27.83;;;2.50;99.90;;;;;;5059641;28;20523;-78
2023/02/12 03:48:29;;;;;;;;;;;2.50;99.90;;;;;;5059511;28;20721;-78
2023/02/12 03:51:10;;;;;;;62.92;25.77;;;2.40;99.90;;;;;;5062920;28;19980;-79
2023/02/12 03:53:36;;;;;;;82.13;27.23;;;2.50;99.90;;;;;;5062339;28;20417;-79
2023/02/12 03:56:08;;;;;;;128.25;28.20;;;2.50;99.90;;;;;;5062551;28;20029;-79
2023/02/12 03:58:37;;;;;;;123.97;27.38;;;2.50;99.90;;;;;;5060986;28;20625;-79
2023/02/12 04:01:03;;;;;;;50.35;22.67;;;2.40;99.90;;;;;;5060026;28;20598;-78
2023/02/12 04:03:30;;;;;;;62.78;25.10;;;2.40;99.90;;;;;;5063342;28;20036;-79
2023/02/12 04:05:56;;;;;;;56.00;23.30;;;2.40;99.90;;;;;;5059493;28;20046;-79
2023/02/12 04:08:24;;;;;;;49.30;22.13;;;2.50;99.90;;;;;;5060693;28;20025;-79
2023/02/12 04:11:12;;;;;;;142.60;27.77;;;2.40;99.90;;;;;;5059044;28;20082;-78
2023/02/12 04:13:51;;;;;;;70.72;24.90;;;2.40;99.90;;;;;;5057664;28;20040;-79
2023/02/12 04:16:31;;;;;;;51.95;23.13;;;2.40;99.90;;;;;;5058026;28;20029;-79
2023/02/12 04:18:57;;;;;;;57.05;23.58;;;2.40;99.90;;;;;;5059787;28;20037;-79
2023/02/12 04:21:42;;;;;;;68.32;26.48;;;2.40;99.90;;;;;;5058979;28;20072;-79
2023/02/12 04:24:37;;;;;;;88.95;26.80;;;2.40;99.90;;;;;;5063851;28;20025;-77
2023/02/12 04:27:33;;;;;;;71.55;24.10;;;2.50;99.90;;;;;;5061279;28;20095;-79
2023/02/12 04:30:19;;;;;;;57.85;22.73;;;2.50;99.90;;;;;;5058471;28;20086;-79
2023/02/12 04:33:02;;;;;;;62.17;23.88;;;2.50;99.90;;;;;;5057342;28;20025;-79
2023/02/12 04:35:38;;;;;;;60.95;24.35;;;2.50;99.90;;;;;;5060493;28;20025;-79
2023/02/12 04:38:09;;;;;;;62.83;23.35;;;2.50;99.90;;;;;;5060357;28;20033;-79
2023/02/12 04:40:39;;;;;;;172.45;28.23;;;2.50;99.90;;;;;;5055765;28;20089;-79
2023/02/12 04:43:05;;;;;;;101.55;36.13;;;2.50;99.90;;;;;;5065318;28;20664;-78
2023/02/12 04:45:33;;;;;;;71.28;31.10;;;2.50;99.90;;;;;;5056554;28;20516;-79
2023/02/12 04:47:59;;;;;;;72.05;31.25;;;2.50;99.90;;;;;;5038230;28;20522;-79
2023/02/12 04:50:27;;;;;;;75.22;29.20;;;2.50;99.90;;;;;;5057116;28;20033;-77
2023/02/12 04:52:53;;;;;;;70.32;28.38;;;2.50;99.90;;;;;;5049926;28;20041;-78
2023/02/12 04:55:19;;;;;;;79.05;27.48;;;2.60;99.90;;;;;;5053234;28;20501;-79
2023/02/12 04:57:44;;;;;;;78.55;28.42;;;2.60;99.90;;;;;;5059945;28;20033;-79
2023/02/12 05:00:13;;;;;;;66.60;26.33;;;2.60;99.90;;;;;;5055393;28;20056;-78
2023/02/12 05:02:39;;;;;;;75.68;28.77;;;2.60;99.90;;;;;;5060819;28;20032;-79
2023/02/12 05:05:05;;;;;;;111.93;25.52;;;2.70;99.90;;;;;;5044334;28;20091;-78
2023/02/12 05:07:31;;;;;;;60.67;23.98;;;2.60;99.90;;;;;;5045517;28;20033;-78
2023/02/12 05:09:56;;;;;;;52.92;22.25;;;2.50;99.90;;;;;;5060005;28;20115;-79
2023/02/12 05:12:22;;;;;;;60.50;24.85;;;2.40;99.90;;;;;;5056039;28;20025;-79
2023/02/12 05:14:48;;;;;;;58.22;23.95;;;2.40;99.90;;;;;;5062436;28;20500;-79
2023/02/12 05:17:14;;;;;;;60.03;24.10;;;2.40;99.90;;;;;;5055377;28;20409;-79
2023/02/12 05:19:39;;;;;;;57.70;23.65;;;2.30;99.90;;;;;;5054498;28;20128;-79
2023/02/12 05:22:05;;;;;;;52.22;22.15;;;2.30;99.90;;;;;;5047301;28;20058;-79
2023/02/12 05:24:31;;;;;;;50.60;21.73;;;2.30;99.90;;;;;;5052153;28;20029;-80
2023/02/12 05:26:57;;;;;;;55.17;24.13;;;2.30;99.90;;;;;;5042077;28;20033;-80
2023/02/12 05:29:23;;;;;;;51.10;23.30;;;2.30;99.90;;;;;;5060627;28;20040;-78
2023/02/12 05:31:48;;;;;;;48.40;21.60;;;2.20;99.90;;;;;;5063999;28;20024;-79
2023/02/12 05:34:14;;;;;;;54.83;23.63;;;2.20;99.90;;;;;;5059896;28;20100;-78
2023/02/12 05:36:40;;;;;;;45.33;20.67;;;2.20;99.90;;;;;;5058769;28;21624;-78
2023/02/12 05:39:06;;;;;;;53.45;22.25;;;2.20;99.90;;;;;;5056856;28;20059;-78
2023/02/12 05:41:36;;;;;;;48.50;21.10;;;2.20;99.90;;;;;;5054993;28;20017;-79
2023/02/12 05:44:03;;;;;;;50.65;21.67;;;2.20;99.90;;;;;;5039955;28;20071;-79
2023/02/12 05:46:30;;;;;;;58.05;24.30;;;2.30;99.90;;;;;;5058430;28;20025;-79
2023/02/12 05:48:55;;;;;;;51.53;22.48;;;2.30;99.90;;;;;;5058793;28;20117;-79
2023/02/12 05:51:24;;;;;;;49.67;21.95;;;2.30;99.90;;;;;;5060132;28;20079;-78
2023/02/12 05:53:54;;;;;;;49.30;21.20;;;2.30;99.90;;;;;;5066699;28;20041;-78
2023/02/12 05:56:23;;;;;;;52.95;22.48;;;2.30;99.90;;;;;;5062455;28;20025;-79
2023/02/12 05:58:57;;;;;;;45.90;20.58;;;2.30;99.90;;;;;;5058432;28;20104;-78
2023/02/12 06:01:28;;;;;;;46.07;20.53;;;2.30;99.90;;;;;;5067338;28;20052;-78
2023/02/12 06:03:54;;;;;;;48.95;20.02;;;2.30;99.90;;;;;;5059966;28;20337;-79
2023/02/12 06:06:20;;;;;;;56.88;23.10;;;2.30;99.90;;;;;;5057290;28;20029;-79
2023/02/12 06:08:48;;;;;;;55.35;22.70;;;2.30;99.90;;;;;;5041472;28;20032;-79
2023/02/12 06:11:15;;;;;;;44.63;20.25;;;2.30;99.90;;;;;;5056082;28;20029;-78
2023/02/12 06:13:41;;;;;;;47.97;20.33;;;2.30;99.90;;;;;;5058101;28;20041;-79
2023/02/12 06:16:14;;;;;;;47.85;20.70;;;2.40;99.90;;;;;;5058207;28;20039;-77
2023/02/12 06:18:40;;;;;;;51.33;21.45;;;2.40;99.90;;;;;;5057932;28;20063;-78
2023/02/12 06:21:06;;;;;;;49.80;20.50;;;2.50;99.90;;;;;;5053648;28;20040;-78
2023/02/12 06:23:31;;;;;;;45.05;18.83;;;2.50;99.90;;;;;;5055207;28;20096;-77
2023/02/12 06:25:58;;;;;;;45.50;19.77;;;2.50;99.90;;;;;;5054950;28;20538;-77
2023/02/12 06:28:24;;;;;;;57.25;20.73;;;2.60;99.90;;;;;;5053191;28;20029;-78
2023/02/12 06:30:49;;;;;;;43.50;18.25;;;2.60;99.90;;;;;;5052799;28;20057;-78
2023/02/12 06:33:15;;;;;;;51.30;20.52;;;2.60;99.90;;;;;;5057475;28;20029;-77
2023/02/12 06:35:41;;;;;;;52.67;20.95;;;2.70;99.90;;;;;;5054650;28;20048;-77
2023/02/12 06:38:08;;;;;;;60.33;21.73;;;2.70;99.90;;;;;;5050008;28;20033;-78
2023/02/12 06:40:33;;;;;;;40.67;17.85;;;2.70;99.90;;;;;;5049600;28;20028;-78
2023/02/12 06:42:59;;;;;;;53.95;21.02;;;2.70;99.90;;;;;;5060333;28;20088;-78
2023/02/12 06:45:25;;;;;;;49.60;19.70;;;2.80;99.90;;;;;;5056494;28;20017;-78
2023/02/12 06:47:51;;;;;;;50.05;20.48;;;2.80;99.90;;;;;;5053032;28;20504;-78
2023/02/12 06:50:18;;;;;;;52.30;20.98;;;2.80;99.90;;;;;;5058459;28;20040;-78
2023/02/12 06:52:43;;;;;;;51.08;20.48;;;2.80;99.90;;;;;;5047412;28;20029;-78
2023/02/12 06:55:09;;;;;;;57.28;23.20;;;2.80;99.90;;;;;;5055349;28;20108;-78
2023/02/12 06:57:35;;;;;;;56.50;21.42;;;2.90;99.90;;;;;;5051892;28;20031;-78
2023/02/12 07:00:01;;;;;;;53.80;22.20;;;2.90;99.90;;;;;;5049991;28;20052;-78
2023/02/12 07:02:27;;;;;;;52.45;21.13;;;2.90;99.90;;;;;;5059663;28;20074;-78
2023/02/12 07:04:52;;;;;;;58.72;23.25;;;2.80;99.90;;;;;;5053377;28;20021;-78
2023/02/12 07:07:18;;;;;;;65.57;23.38;;;2.90;99.90;;;;;;5035511;28;20127;-79
2023/02/12 07:09:44;;;;;;;60.65;22.73;;;2.90;99.90;;;;;;5052721;28;20036;-77
2023/02/12 07:12:10;;;;;;;62.53;23.23;;;2.90;99.90;;;;;;5045188;28;20147;-78
2023/02/12 07:14:35;;;;;;;60.55;22.60;;;2.90;99.90;;;;;;5049670;28;20079;-77
2023/02/12 07:17:02;;;;;;;60.35;22.25;;;2.90;99.90;;;;;;5050328;28;20116;-78
2023/02/12 07:19:29;;;;;;;59.30;21.73;;;2.90;99.90;;;;;;5054483;28;20043;-78
2023/02/12 07:21:55;;;;;;;56.70;21.75;;;2.90;99.90;;;;;;5052458;28;20060;-79
2023/02/12 07:24:21;;;;;;;63.65;22.73;;;2.90;99.90;;;;;;5053712;28;20028;-78
2023/02/12 07:26:47;;;;;;;56.88;22.50;;;2.90;99.90;;;;;;5055048;28;20481;-78
2023/02/12 07:29:13;;;;;;;61.92;22.73;;;2.90;99.90;;;;;;5038683;28;20572;-77
2023/02/12 07:31:39;;;;;;;61.40;22.45;;;3.00;99.90;;;;;;5050055;28;20036;-79
2023/02/12 07:34:05;;;;;;;53.47;20.92;;;3.00;99.90;;;;;;5054783;28;20040;-76
2023/02/12 07:36:32;;;;;;;56.20;21.10;;;3.00;99.90;;;;;;5053288;28;20036;-78
2023/02/12 07:38:58;;;;;;;57.92;23.70;;;3.00;99.90;;;;;;5054521;28;20093;-78
2023/02/12 07:41:30;;;;;;;57.15;21.95;;;3.00;99.90;;;;;;5051382;28;20025;-77
2023/02/12 07:43:58;;;;;;;58.03;22.38;;;3.00;99.90;;;;;;5053095;28;20506;-79
2023/02/12 07:46:30;;;;;;;54.05;21.23;;;3.00;99.90;;;;;;5054402;28;20070;-79
2023/02/12 07:48:58;;;;;;;56.20;20.33;;;3.00;99.90;;;;;;5050844;28;20021;-78
2023/02/12 07:51:25;;;;;;;57.88;22.10;;;3.00;99.90;;;;;;5050817;28;20123;-78
2023/02/12 07:53:52;;;;;;;45.67;18.73;;;3.00;99.90;;;;;;5053999;28;20063;-78
2023/02/12 07:56:20;;;;;;;46.85;19.63;;;3.00;99.90;;;;;;5051202;28;20142;-78
2023/02/12 07:58:48;;;;;;;58.28;21.08;;;3.00;99.90;;;;;;5053783;28;20408;-76
2023/02/12 08:01:20;;;;;;;57.83;21.45;;;3.10;99.90;;;;;;5053698;28;20036;-77
2023/02/12 08:03:47;;;;;;;47.45;19.45;;;3.10;99.90;;;;;;5052842;28;20048;-78
2023/02/12 08:06:20;;;;;;;49.88;20.08;;;3.10;99.90;;;;;;5060190;28;20067;-79
2023/02/12 08:08:46;;;;;;;53.10;21.50;;;3.10;99.90;;;;;;5060264;28;20037;-78
2023/02/12 08:11:13;;;;;;;52.75;21.13;;;3.20;99.90;;;;;;5043205;28;20034;-77
2023/02/12 08:13:40;;;;;;;53.30;19.40;;;3.20;99.90;;;;;;5059689;28;20041;-78
2023/02/12 08:16:15;;;;;;;48.78;19.15;;;3.20;99.90;;;;;;5058580;28;20840;-77
2023/02/12 08:18:41;;;;;;;54.45;21.02;;;3.20;99.90;;;;;;5059989;28;20047;-78
2023/02/12 08:21:09;;;;;;;51.67;20.95;;;3.20;99.90;;;;;;5050738;28;20032;-77
2023/02/12 08:23:35;;;;;;;49.28;18.52;;;3.20;99.90;;;;;;5054379;28;20040;-77
2023/02/12 08:26:36;;;;;;;62.30;21.98;;;3.30;99.90;;;;;;5042017;28;20433;-78
2023/02/12 08:29:08;;;;;;;52.63;18.23;;;3.30;99.90;;;;;;5025083;28;20051;-78
2023/02/12 08:31:37;;;;;;;48.67;18.58;;;3.40;99.90;;;;;;5051732;28;20041;-78
2023/02/12 08:34:03;;;;;;;46.65;18.25;;;3.50;99.90;;;;;;5060279;28;20037;-77
2023/02/12 08:36:38;;;;;;;48.25;17.85;;;3.50;99.90;;;;;;5054775;28;20040;-78
2023/02/12 08:39:05;;;;;;;60.10;21.17;;;3.60;99.90;;;;;;5055853;28;20037;-77
2023/02/12 08:41:31;;;;;;;44.45;17.38;;;3.60;99.90;;;;;;5045799;28;20059;-80
2023/02/12 08:43:59;;;;;;;51.50;18.92;;;3.70;99.90;;;;;;5051185;28;20037;-77
2023/02/12 08:46:28;;;;;;;43.20;16.75;;;3.70;99.90;;;;;;5048544;28;20029;-77
2023/02/12 08:48:57;;;;;;;46.88;18.05;;;3.80;99.90;;;;;;5050740;28;20025;-77
2023/02/12 08:51:25;;;;;;;56.28;20.25;;;3.90;99.90;;;;;;5048347;28;20592;-80
2023/02/12 08:53:57;;;;;;;47.55;18.30;;;3.90;99.90;;;;;;5053567;28;20041;-77
2023/02/12 08:56:24;;;;;;;50.42;20.15;;;4.00;99.90;;;;;;5058042;28;20036;-77
2023/02/12 08:58:51;;;;;;;53.55;21.50;;;4.10;99.90;;;;;;5058686;28;20099;-77
2023/02/12 09:01:20;;;;;;;48.95;18.17;;;4.10;99.90;;;;;;5057765;28;20337;-78
2023/02/12 09:03:47;;;;;;;45.50;17.73;;;4.10;99.90;;;;;;5056731;28;20028;-77
2023/02/12 09:06:14;;;;;;;42.58;17.10;;;4.10;99.90;;;;;;5057394;28;20017;-78
2023/02/12 09:08:40;;;;;;;46.85;19.63;;;4.10;99.90;;;;;;5054759;28;20025;-77
2023/02/12 09:11:08;;;;;;;58.35;22.17;;;4.10;99.90;;;;;;5057216;28;20639;-78
2023/02/12 09:13:35;;;;;;;54.30;21.33;;;4.20;99.90;;;;;;5055624;28;20470;-77
2023/02/12 09:16:03;;;;;;;55.97;22.92;;;4.30;99.90;;;;;;5052115;28;20064;-78
2023/02/12 09:18:30;;;;;;;58.17;21.05;;;4.30;99.90;;;;;;5051394;28;20031;-78
2023/02/12 09:21:04;;;;;;;55.92;20.30;;;4.40;99.90;;;;;;5055373;28;20025;-79
2023/02/12 09:23:30;;;;;;;58.92;21.27;;;4.40;99.90;;;;;;5056652;28;20056;-78
2023/02/12 09:25:56;;;;;;;57.67;21.50;;;4.50;99.90;;;;;;5058630;28;20048;-77
2023/02/12 09:28:23;;;;;;;60.08;22.35;;;4.40;99.90;;;;;;5059016;28;20029;-78
2023/02/12 09:30:49;;;;;;;60.42;22.08;;;4.30;99.90;;;;;;5054566;28;20043;-78
2023/02/12 09:33:14;;;;;;;57.85;22.60;;;4.30;99.90;;;;;;5052509;28;20052;-78
2023/02/12 09:35:40;;;;;;;58.35;22.98;;;4.30;99.90;;;;;;5037384;28;20105;-79
2023/02/12 09:38:07;;;;;;;58.50;20.77;;;4.30;99.90;;;;;;5057697;28;20041;-78
2023/02/12 09:40:47;;;;;;;57.92;20.92;;;4.30;99.90;;;;;;5049672;28;20048;-79
2023/02/12 09:43:17;;;;;;;65.57;22.08;;;4.30;99.90;;;;;;5046681;28;20098;-78
2023/02/12 09:46:12;;;;;;;55.97;21.85;;;4.30;99.90;;;;;;5036122;28;20051;-78
2023/02/12 09:48:59;;;;;;;59.92;22.42;;;4.30;99.90;;;;;;5037157;28;20531;-78
2023/02/12 09:51:27;;;;;;;60.40;22.75;;;4.30;99.90;;;;;;5047055;28;20071;-79
2023/02/12 09:54:12;;;;;;;58.97;21.08;;;4.40;99.90;;;;;;5052376;28;20072;-79
2023/02/12 09:56:40;;;;;;;61.20;21.88;;;4.40;99.90;;;;;;5056010;28;20055;-78
2023/02/12 09:59:08;;;;;;;53.55;19.55;;;4.40;99.90;;;;;;5061071;28;20118;-79
2023/02/12 10:01:34;;;;;;;62.60;21.65;;;4.40;99.90;;;;;;5054541;28;20033;-79
2023/02/12 10:04:01;;;;;;;54.63;21.27;;;4.40;99.90;;;;;;5053819;28;20021;-79
2023/02/12 10:06:40;;;;;;;56.08;20.92;;;4.50;99.90;;;;;;5056488;28;20089;-79
2023/02/12 10:09:35;;;;;;;54.50;20.98;;;4.60;99.90;;;;;;5050126;28;20029;-78
2023/02/12 10:12:32;;;;;;;51.13;20.40;;;4.60;99.90;;;;;;5050797;28;20525;-78
2023/02/12 10:15:23;;;;;;;49.25;18.73;;;4.60;99.90;;;;;;5057602;28;20393;-77
2023/02/12 10:18:16;;;;;;;43.15;17.52;;;4.70;99.90;;;;;;5059661;28;20048;-77
2023/02/12 10:21:15;;;;;;;38.75;16.60;;;4.80;99.90;;;;;;5054866;28;20032;-79
2023/02/12 10:23:44;;;;;;;48.97;22.33;;;4.80;99.90;;;;;;5056185;28;21026;-78
2023/02/12 10:26:09;;;;;;;52.20;19.95;;;4.80;99.90;;;;;;5060635;28;20602;-79
2023/02/12 10:28:40;;;;;;;43.30;18.60;;;4.90;99.90;;;;;;5057348;28;20025;-78
2023/02/12 10:31:10;;;;;;;43.67;17.25;;;5.00;99.90;;;;;;5056056;28;20036;-79
2023/02/12 10:33:41;;;;;;;42.17;16.23;;;5.10;99.90;;;;;;5056595;28;20059;-78
2023/02/12 10:36:22;;;;;;;33.85;15.68;;;5.20;99.90;;;;;;5066362;28;20037;-77
2023/02/12 10:38:52;;;;;;;38.28;15.85;;;5.30;99.90;;;;;;5062407;28;20045;-77
2023/02/12 10:41:17;;;;;;;38.55;17.15;;;5.40;99.90;;;;;;5060446;28;20036;-79
2023/02/12 10:43:43;;;;;;;42.97;17.55;;;5.50;99.90;;;;;;5058163;28;20033;-78
2023/02/12 10:46:14;;;;;;;37.72;16.25;;;5.60;99.90;;;;;;5057507;28;20035;-79
2023/02/12 10:48:48;;;;;;;39.15;17.25;;;5.70;99.90;;;;;;5050242;28;20813;-78
2023/02/12 10:51:38;;;;;;;44.05;19.70;;;5.70;99.90;;;;;;5053046;28;20778;-78
2023/02/12 10:54:31;;;;;;;47.30;20.25;;;5.70;99.90;;;;;;5051213;28;20112;-77
2023/02/12 10:56:59;;;;;;;45.30;20.75;;;5.80;99.90;;;;;;5044076;28;20033;-77
2023/02/12 10:59:25;;;;;;;48.53;20.65;;;5.70;99.90;;;;;;5047840;28;20052;-77
2023/02/12 11:01:51;;;;;;;45.25;19.38;;;5.70;99.90;;;;;;5046675;28;20074;-78
2023/02/12 11:04:25;;;;;;;46.92;21.30;;;5.70;99.90;;;;;;5053658;28;20025;-81
2023/02/12 11:07:06;;;;;;;39.60;18.77;;;5.70;99.90;;;;;;5048540;28;20532;-77
2023/02/12 11:09:45;;;;;;;44.92;17.38;;;5.60;99.90;;;;;;5051563;28;20508;-76
2023/02/12 11:12:34;;;;;;;37.13;17.13;;;5.50;99.90;;;;;;5066530;28;20056;-78
2023/02/12 11:15:15;;;;;;;36.50;17.30;;;5.50;99.90;;;;;;5052788;28;20021;-77
2023/02/12 11:17:53;;;;;;;34.78;16.60;;;5.50;99.90;;;;;;5054299;28;20100;-76
2023/02/12 11:20:23;;;;;;;31.98;15.90;;;5.50;99.90;;;;;;5053244;28;20029;-83
2023/02/12 11:22:55;;;;;;;38.67;17.52;;;5.40;99.90;;;;;;5053762;28;20485;-78
2023/02/12 11:25:23;;;;;;;37.00;17.48;;;5.40;99.90;;;;;;5050080;28;20024;-77
2023/02/12 11:28:16;;;;;;;33.55;15.52;;;5.40;99.90;;;;;;5043375;28;20037;-77
2023/02/12 11:30:57;;;;;;;35.72;16.95;;;5.40;99.90;;;;;;5036047;28;20017;-78
2023/02/12 11:33:34;;;;;;;40.33;17.45;;;5.40;99.90;;;;;;5041479;28;20029;-76
2023/02/12 11:36:22;;;;;;;36.15;16.75;;;5.40;99.90;;;;;;5048539;28;20059;-78
2023/02/12 11:38:51;;;;;;;35.30;15.60;;;5.40;99.90;;;;;;5046591;28;20025;-78
2023/02/12 11:41:33;;;;;;;36.45;16.75;;;5.40;99.90;;;;;;5045683;28;20071;-78
2023/02/12 11:44:00;;;;;;;37.13;16.63;;;5.40;99.90;;;;;;5048795;28;20051;-77
2023/02/12 11:46:27;;;;;;;37.42;17.25;;;5.50;99.90;;;;;;5035877;28;20543;-78
2023/02/12 11:48:56;;;;;;;36.90;17.55;;;5.50;99.90;;;;;;5042342;28;20240;-77
2023/02/12 11:51:28;;;;;;;37.00;17.05;;;5.50;99.90;;;;;;5029366;28;20120;-76
2023/02/12 11:54:00;;;;;;;36.90;17.52;;;5.60;99.90;;;;;;5052191;28;20034;-76
2023/02/12 11:56:41;;;;;;;35.72;16.00;;;5.70;99.90;;;;;;5040994;28;20056;-79
2023/02/12 11:59:39;;;;;;;33.97;15.75;;;5.60;99.90;;;;;;5035739;28;20045;-78
2023/02/12 12:02:24;;;;;;;29.55;13.52;;;5.60;99.90;;;;;;5041707;28;20037;-76
2023/02/12 12:04:54;;;;;;;25.25;12.70;;;5.70;99.90;;;;;;5043436;28;20025;-77
2023/02/12 12:07:30;;;;;;;31.88;14.57;;;5.80;99.90;;;;;;5032120;28;20028;-77
2023/02/12 12:10:06;;;;;;;26.48;12.18;;;5.90;99.90;;;;;;5041816;28;20037;-78
2023/02/12 12:12:50;;;;;;;25.67;13.05;;;5.90;99.90;;;;;;5048830;28;20025;-76
2023/02/12 12:21:32;;;;;;;22.77;11.63;;;5.90;99.90;;;;;;5049339;28;20440;-76
2023/02/12 12:24:18;;;;;;;28.13;11.85;;;6.00;99.90;;;;;;5049224;28;20029;-76
2023/02/12 12:26:59;;;;;;;21.25;11.35;;;6.00;99.90;;;;;;5051516;28;20024;-76
2023/02/12 12:29:59;;;;;;;22.73;11.90;;;6.10;99.90;;;;;;5043565;28;20032;-75
2023/02/12 12:32:28;;;;;;;25.00;12.18;;;6.10;99.90;;;;;;5047962;28;20048;-76
2023/02/12 12:34:54;;;;;;;27.70;12.95;;;6.10;99.90;;;;;;5047470;28;20112;-75
2023/02/12 12:37:47;;;;;;;22.92;11.30;;;6.10;99.90;;;;;;5047092;28;20809;-78
2023/02/12 12:40:40;;;;;;;24.55;12.07;;;6.10;99.90;;;;;;5044003;28;20024;-78
2023/02/12 12:43:12;;;;;;;25.95;12.07;;;6.10;99.90;;;;;;5047831;28;20070;-78
2023/02/12 12:45:50;;;;;;;25.55;12.70;;;6.10;99.90;;;;;;5045461;28;20055;-78
2023/02/12 12:48:27;;;;;;;24.35;13.20;;;6.10;99.90;;;;;;5028332;28;20473;-77
2023/02/12 12:51:16;;;;;;;26.15;13.88;;;6.10;99.90;;;;;;5041065;28;20704;-76
2023/02/12 12:54:06;;;;;;;29.70;14.48;;;6.20;99.90;;;;;;5028948;28;20040;-78
2023/02/12 12:57:05;;;;;;;29.92;15.60;;;6.10;99.90;;;;;;5034593;28;20110;-78
2023/02/12 12:59:47;;;;;;;34.17;14.93;;;6.20;99.90;;;;;;5049012;28;20033;-78
2023/02/12 13:02:54;;;;;;;24.67;12.40;;;6.20;99.90;;;;;;5051619;28;20033;-78
2023/02/12 13:05:47;;;;;;;25.77;13.10;;;6.20;99.90;;;;;;5056138;28;20035;-78
2023/02/12 13:08:24;;;;;;;25.65;12.18;;;6.10;99.90;;;;;;5027187;28;20049;-76
2023/02/12 13:11:15;;;;;;;25.60;12.60;;;6.20;99.90;;;;;;5041226;28;20018;-75
2023/02/12 13:13:46;;;;;;;28.20;14.18;;;6.20;99.90;;;;;;5047291;28;20044;-78